Yale, Iowa
Current Conditions -  °F | °C
As of 6:15 PM on Saturday 20 Dec 2014 (Local Time) from KPRO Reporting Station
Haze Haze  
Wind Chill: 29°   Ceiling: 1300
Heat Index: 34°   Visibility: 5mi
Dew Point: 34°   Wind: 6mph
Humidity: 100%   Direction: 140°SE
Pressure: 30.11"   Gusts: NA
Location:  41.78°N, 94.36°W
Report Text: KPRO 210015Z AUTO 14005KT 5SM BR OVC013 01/01 A3011 RMK AO2 T00100010
Loading
Personal Weather Stations






























Interactive Weather Map New forecast layout! Learn more

10-Day Weather Forecast

Advertisements
Track Severe Weather on mobile